Latest Weather Observations for Warruwi

IDD60801

Issued at 7:35 am CST Monday 22 September 2014 (issued every 30 minutes, with the page automatically refreshed every 10 minutes)

About weather observations | Map of weather stations | Latest weather observations for NT | Other Formats
Station Details ID: 014401 Name: WARRUWI AIRPORT Lat: -11.65 Lon: 133.38 Height: 19.2 m
Data from the previous 72 hours. | See also: Recent months at Warruwi
Date/Time
CST
Temp
°C
App
Temp
°C
Dew
Point
Rel
Hum
%
Delta-T
°C
Wind Press
QNH
hPa
Press
MSL
hPa
Rain
since 9 am
mm
Dir
 
Spd
km/h
Gust
km/h
Spd
kts
Gust
kts
22/07:30am 24.9 27.8 21.8 83 2.1 S 9 13 5 7 1015.9 1015.8 0.0
22/07:00am 24.2 27.7 21.9 87 1.5 S 6 11 3 6 1015.2 1015.0 0.0
22/06:30am 23.9 27.4 21.8 88 1.4 SSW 6 7 3 4 1014.6 1014.4 0.0
22/06:00am 24.2 28.9 21.9 87 1.5 SW 0 4 0 2 1014.3 1014.1 0.0
22/05:30am 24.0 27.4 20.9 83 2.0 W 4 7 2 4 1013.9 1013.7 0.0
22/05:00am 24.8 27.7 20.7 78 2.7 ENE 6 9 3 5 1013.3 1013.1 0.0
22/04:30am 23.5 27.4 21.2 87 1.5 ENE 2 6 1 3 1013.1 1012.9 0.0
22/04:00am 23.5 27.1 20.6 84 1.9 ENE 2 4 1 2 1013.1 1012.9 0.0
22/03:30am 24.4 28.3 21.1 82 2.2 E 2 4 1 2 1013.1 1012.9 0.0
22/03:00am 24.7 28.4 21.4 82 2.2 E 4 4 2 2 1013.2 1013.0 0.0
22/02:30am 24.9 28.1 21.6 82 2.2 ENE 7 13 4 7 1013.1 1012.9 0.0
22/02:00am 24.9 28.2 21.8 83 2.1 ENE 7 11 4 6 1013.3 1013.1 0.0
22/01:30am 24.5 28.5 22.0 86 1.7 ENE 4 9 2 5 1013.7 1013.5 0.0
22/01:00am 24.1 28.2 21.6 86 1.7 ENE 2 4 1 2 1014.0 1013.8 0.0
22/12:30am 24.6 28.9 21.9 85 1.8 NE 2 4 1 2 1014.4 1014.2 0.0
22/12:00am 24.5 28.3 21.6 84 1.9 NE 4 6 2 3 1014.7 1014.5 0.0
 
Date/Time
CST
Temp
°C
App
Temp
°C
Dew
Point
Rel
Hum
%
Delta-T
°C
Wind Press
QNH
hPa
Press
MSL
hPa
Rain
since 9 am
mm
Dir
 
Spd
km/h
Gust
km/h
Spd
kts
Gust
kts
21/11:30pm 24.4 28.5 21.5 84 1.9 ENE 2 4 1 2 1015.0 1014.8 0.0
21/11:00pm 24.5 28.2 21.4 83 2.0 NE 4 4 2 2 1014.9 1014.7 0.0
21/10:30pm 24.7 28.7 21.4 82 2.2 NNE 2 4 1 2 1014.8 1014.6 0.0
21/10:00pm 24.9 29.2 21.2 80 2.4 CALM 0 0 0 0 1015.0 1014.8 0.0
21/09:30pm 25.2 29.2 21.3 79 2.6 NNE 2 4 1 2 1014.7 1014.5 0.0
21/09:00pm 25.8 29.1 21.5 77 2.9 NNE 6 13 3 7 1014.4 1014.2 0.0
21/08:30pm 25.8 28.9 21.5 77 2.9 NNE 7 13 4 7 1013.9 1013.7 0.0
21/08:00pm 25.9 28.7 21.6 77 2.9 NNE 9 20 5 11 1013.4 1013.2 0.0
21/07:30pm 26.0 28.2 21.2 75 3.2 NNE 11 19 6 10 1013.2 1013.0 0.0
21/07:00pm 26.2 29.1 21.0 73 3.4 NNE 7 15 4 8 1013.0 1012.8 0.0
21/06:30pm 26.6 28.2 20.7 70 3.9 NNE 13 22 7 12 1012.6 1012.4 0.0
21/06:00pm 27.3 29.4 20.1 64 4.7 NNE 9 15 5 8 1012.5 1012.3 0.0
21/05:30pm 28.1 29.9 19.6 60 5.5 NE 9 17 5 9 1012.2 1012.0 0.0
21/05:00pm 29.1 30.7 19.1 54 6.5 NE 9 17 5 9 1012.2 1012.0 0.0
21/04:30pm 29.9 31.7 19.6 54 6.7 ENE 9 15 5 8 1012.1 1011.9 0.0
21/04:00pm 29.9 30.7 17.4 47 7.9 NE 9 15 5 8 1012.0 1011.8 0.0
21/03:30pm 30.3 30.5 17.7 46 8.0 ENE 13 19 7 10 1012.1 1011.9 0.0
21/03:00pm 30.7 30.7 16.3 42 9.0 ENE 11 19 6 10 1012.1 1011.9 0.0
21/02:30pm 30.5 30.2 16.5 43 8.8 E 13 20 7 11 1012.3 1012.1 0.0
21/02:00pm 30.4 31.2 18.2 48 7.8 E 11 17 6 9 1012.8 1012.6 0.0
21/01:30pm 30.3 30.7 19.0 50 7.3 E 15 20 8 11 1013.1 1012.9 0.0
21/01:00pm 30.3 31.6 19.3 51 7.2 E 11 19 6 10 1013.8 1013.6 0.0
21/12:30pm 29.9 30.7 19.9 55 6.6 E 15 20 8 11 1014.2 1014.0 0.0
21/12:00pm 28.9 30.0 18.9 54 6.5 E 11 15 6 8 1014.6 1014.4 0.0
21/11:30am 28.5 29.5 19.4 57 5.9 E 13 17 7 9 1014.9 1014.7 0.0
21/11:00am 28.8 31.0 20.3 60 5.6 E 9 13 5 7 1015.5 1015.4 0.0
21/10:30am 27.9 31.1 20.5 64 4.9 S 4 9 2 5 1015.9 1015.8 0.0
21/10:00am 27.6 30.7 21.4 69 4.1 SSE 7 11 4 6 1016.2 1016.1 0.0
21/09:30am 26.4 29.8 21.6 75 3.2 SSW 6 11 3 6 1016.2 1016.1 0.0
21/09:00am 25.7 29.0 21.8 79 2.6 S 7 11 4 6 1015.9 1015.8 0.0
21/08:30am 24.6 27.6 21.3 82 2.2 SSW 7 11 4 6 1015.5 1015.4 0.0
21/08:00am 25.5 28.4 20.7 75 3.1 S 6 13 3 7 1015.1 1014.9 0.0
21/07:30am 25.0 29.7 21.9 83 2.1 CALM 0 4 0 2 1014.6 1014.4 0.0
21/07:00am 23.3 27.0 21.4 89 1.3 ENE 4 7 2 4 1013.9 1013.7 0.0
21/06:30am 22.7 25.7 20.8 89 1.2 ENE 6 7 3 4 1013.5 1013.3 0.0
21/06:00am 23.0 26.3 20.7 87 1.5 ENE 4 7 2 4 1013.3 1013.1 0.0
21/05:30am 23.4 26.5 21.1 87 1.5 ENE 6 7 3 4 1013.0 1012.8 0.0
21/05:00am 23.4 26.4 20.9 86 1.6 ENE 6 7 3 4 1012.6 1012.4 0.0
21/04:30am 23.0 25.9 20.7 87 1.5 NE 6 7 3 4 1012.5 1012.3 0.0
21/04:00am 22.3 25.3 20.0 87 1.5 NE 4 6 2 3 1012.6 1012.4 0.0
21/03:30am 22.8 25.8 20.1 85 1.7 NE 4 6 2 3 1012.6 1012.4 0.0
21/03:00am 23.6 26.5 19.9 80 2.4 ENE 4 7 2 4 1012.6 1012.4 0.0
21/02:30am 24.9 27.4 20.2 75 3.1 E 7 11 4 6 1012.9 1012.7 0.0
21/02:00am 25.0 27.5 20.3 75 3.1 E 7 11 4 6 1013.1 1012.9 0.0
21/01:30am 25.3 27.0 20.1 73 3.4 E 11 15 6 8 1013.3 1013.1 0.0
21/01:00am 25.3 27.5 20.3 74 3.3 E 9 13 5 7 1013.6 1013.4 0.0
21/12:30am 24.9 28.0 21.0 79 2.6 E 6 9 3 5 1014.0 1013.8 0.0
21/12:00am 25.1 28.5 21.6 81 2.3 ENE 6 11 3 6 1014.2 1014.0 0.0
 
Date/Time
CST
Temp
°C
App
Temp
°C
Dew
Point
Rel
Hum
%
Delta-T
°C
Wind Press
QNH
hPa
Press
MSL
hPa
Rain
since 9 am
mm
Dir
 
Spd
km/h
Gust
km/h
Spd
kts
Gust
kts
20/11:30pm 25.1 28.6 21.8 82 2.2 ENE 6 11 3 6 1014.3 1014.1 0.0
20/11:00pm 25.3 28.6 21.8 81 2.3 E 7 11 4 6 1014.5 1014.3 0.0
20/10:30pm 25.3 28.6 21.8 81 2.3 ENE 7 9 4 5 1014.6 1014.4 0.0
20/10:00pm 25.3 28.8 21.8 81 2.3 ENE 6 9 3 5 1014.3 1014.1 0.0
20/09:30pm 25.3 28.5 21.2 78 2.7 ENE 6 9 3 5 1014.1 1013.9 0.0
20/09:00pm 25.3 28.9 21.2 78 2.7 ENE 4 7 2 4 1013.8 1013.6 0.0
20/08:30pm 25.4 28.8 20.9 76 3.0 NE 4 7 2 4 1013.6 1013.4 0.0
20/08:00pm 25.6 29.2 21.3 77 2.8 NE 4 7 2 4 1013.2 1013.0 0.0
20/07:30pm 25.6 28.7 21.1 76 3.0 ENE 6 11 3 6 1012.6 1012.4 0.0
20/07:00pm 25.8 28.8 20.8 74 3.3 NNE 6 13 3 7 1012.2 1012.0 0.0
20/06:30pm 26.2 28.0 20.3 70 3.9 NE 11 20 6 11 1012.0 1011.8 0.0
20/06:00pm 27.1 28.6 19.7 64 4.8 NE 11 20 6 11 1011.9 1011.7 0.0
20/05:30pm 28.4 29.3 18.5 55 6.3 ENE 11 22 6 12 1011.7 1011.5 0.0
20/05:00pm 28.5 29.4 18.3 54 6.5 NE 11 22 6 12 1011.4 1011.2 0.0
20/04:30pm 29.7 30.8 18.8 52 7.1 NE 11 22 6 12 1011.4 1011.2 0.0
20/04:00pm 30.4 29.6 16.0 41 9.0 ENE 15 22 8 12 1011.4 1011.2 0.0
20/03:30pm 30.5 30.1 16.1 41 9.0 ENE 13 24 7 13 1011.6 1011.4 0.0
20/03:00pm 29.5 30.0 19.2 54 6.7 E 15 24 8 13 1012.0 1011.8 0.0
20/02:30pm 28.6 28.7 19.2 56 6.1 E 17 22 9 12 1012.8 1012.6 0.0
20/02:00pm 29.1 29.3 19.4 55 6.3 E 17 22 9 12 1013.2 1013.0 0.0
20/01:30pm 29.2 29.6 18.9 53 6.7 E 15 24 8 13 1013.6 1013.4 0.0
20/01:00pm 29.9 30.4 19.3 53 6.9 E 15 22 8 12 1014.3 1014.1 0.0
20/12:30pm 29.6 30.1 19.3 54 6.7 E 15 22 8 12 1014.6 1014.4 0.0
20/12:00pm 28.8 29.5 19.7 58 5.9 E 15 20 8 11 1015.3 1015.1 0.0
20/11:30am 28.6 28.9 20.3 60 5.5 E 19 24 10 13 1015.6 1015.5 0.0
20/11:00am 28.1 29.1 21.1 65 4.7 E 17 20 9 11 1016.1 1016.0 0.0
20/10:30am 27.8 28.9 20.4 64 4.9 E 15 22 8 12 1016.3 1016.2 0.0
20/10:00am 27.3 28.0 19.6 62 5.0 E 15 20 8 11 1016.4 1016.3 0.0
20/09:30am 27.7 28.2 19.2 60 5.5 E 15 20 8 11 1016.3 1016.2 0.0
20/09:00am 27.0 27.3 18.0 58 5.7 E 13 19 7 10 1015.9 1015.8 0.0
20/08:30am 26.7 26.7 17.2 56 5.9 E 13 19 7 10 1015.9 1015.8 0.0
20/08:00am 26.4 26.5 17.5 58 5.6 ESE 13 19 7 10 1015.6 1015.5 0.0
20/07:30am 25.3 27.5 19.7 71 3.6 ESE 7 11 4 6 1015.0 1014.8 0.0
20/07:00am 21.3 24.0 18.7 85 1.6 SE 2 4 1 2 1014.6 1014.4 0.0
20/06:30am 21.3 23.8 19.0 87 1.5 ESE 4 6 2 3 1014.1 1013.9 0.0
20/06:00am 21.4 24.2 19.7 90 1.1 ESE 4 4 2 2 1013.8 1013.6 0.0
20/05:30am 21.1 24.4 19.0 88 1.3 CALM 0 0 0 0 1013.5 1013.3 0.0
20/05:00am 21.7 25.2 19.6 88 1.3 CALM 0 0 0 0 1013.4 1013.2 0.0
20/04:30am 22.3 25.8 19.5 84 1.8 CALM 0 0 0 0 1013.2 1013.0 0.0
20/04:00am 23.4 26.5 20.2 82 2.1 SE 4 6 2 3 1013.2 1013.0 0.0
20/03:30am 24.0 26.8 20.5 81 2.3 SE 6 7 3 4 1013.2 1013.0 0.0
20/03:00am 24.9 27.5 20.4 76 2.9 SE 7 11 4 6 1013.3 1013.1 0.0
20/02:30am 25.6 27.2 19.9 70 3.7 E 11 17 6 9 1013.3 1013.1 0.0
20/02:00am 25.6 27.6 19.9 70 3.7 E 9 17 5 9 1013.6 1013.4 0.0
20/01:30am 25.5 27.5 19.9 71 3.6 E 9 13 5 7 1014.0 1013.8 0.0
20/01:00am 25.2 27.7 19.8 72 3.5 ENE 6 9 3 5 1014.4 1014.2 0.0
20/12:30am 25.3 27.8 19.9 72 3.5 ENE 6 9 3 5 1014.7 1014.5 0.0
20/12:00am 25.7 28.1 20.0 71 3.7 ENE 7 15 4 8 1014.9 1014.7 0.0
 
Date/Time
CST
Temp
°C
App
Temp
°C
Dew
Point
Rel
Hum
%
Delta-T
°C
Wind Press
QNH
hPa
Press
MSL
hPa
Rain
since 9 am
mm
Dir
 
Spd
km/h
Gust
km/h
Spd
kts
Gust
kts
19/11:30pm 25.8 28.1 19.9 70 3.8 ENE 7 11 4 6 1015.2 1015.0 0.0
19/11:00pm 25.9 27.8 19.8 69 4.0 ENE 9 15 5 8 1015.1 1014.9 0.0
19/10:30pm 26.1 28.0 19.7 68 4.1 ENE 9 13 5 7 1015.1 1014.9 0.0
19/10:00pm 26.4 27.4 19.5 66 4.5 E 13 19 7 10 1015.3 1015.1 0.0
19/09:30pm 26.6 27.7 19.7 66 4.5 E 13 19 7 10 1015.2 1015.0 0.0
19/09:00pm 26.5 28.5 19.9 67 4.3 E 9 15 5 8 1014.9 1014.7 0.0
19/08:30pm 26.5 27.8 19.4 65 4.6 ENE 11 15 6 8 1014.5 1014.3 0.0
19/08:00pm 26.5 28.2 19.4 65 4.6 ENE 9 17 5 9 1014.1 1013.9 0.0
19/07:30pm 26.7 27.9 19.1 63 4.9 ENE 11 17 6 9 1013.5 1013.3 0.0
19/07:00pm 26.8 27.9 18.9 62 5.1 ENE 11 20 6 11 1013.0 1012.8 0.0
19/06:30pm 27.3 27.8 18.3 58 5.7 ENE 13 20 7 11 1012.6 1012.4 0.0
19/06:00pm 27.9 28.1 16.8 50 6.9 NE 11 22 6 12 1012.2 1012.0 0.0
19/05:30pm 28.6 29.0 17.2 50 7.2 NE 11 20 6 11 1011.9 1011.7 0.0
19/05:00pm 29.1 28.7 16.3 46 8.0 NE 13 24 7 13 1011.7 1011.5 0.0
19/04:30pm 30.0 29.3 15.3 41 9.0 NE 13 30 7 16 1011.5 1011.3 0.0
19/04:00pm 30.8 29.7 14.4 36 10.0 NE 13 28 7 15 1011.6 1011.4 0.0
19/03:30pm 30.8 29.1 13.6 35 10.3 NE 15 26 8 14 1011.7 1011.5 0.0
19/03:00pm 31.3 28.6 11.7 30 11.5 E 17 30 9 16 1012.0 1011.8 0.0
19/02:30pm 30.6 28.3 13.0 34 10.5 ENE 17 28 9 15 1012.5 1012.3 0.0
19/02:00pm 30.3 28.6 14.8 39 9.5 E 17 26 9 14 1012.9 1012.7 0.0
19/01:30pm 30.1 28.4 15.8 42 8.9 E 19 26 10 14 1013.5 1013.3 0.0
19/01:00pm 29.6 29.2 17.1 47 7.9 E 15 20 8 11 1014.0 1013.8 0.0
19/12:30pm 29.3 29.3 17.2 48 7.6 E 13 19 7 10 1014.3 1014.1 0.0
19/12:00pm 29.0 29.1 17.5 49 7.3 E 13 19 7 10 1014.9 1014.7 0.0
19/11:30am 29.4 30.4 19.4 55 6.5 E 13 19 7 10 1015.3 1015.1 0.0
19/11:00am 28.4 28.6 18.5 55 6.3 E 15 22 8 12 1015.7 1015.6 0.0
19/10:30am 28.2 28.8 18.6 56 6.2 E 13 19 7 10 1016.0 1015.9 0.0
19/10:00am 27.8 27.7 18.8 58 5.8 E 17 22 9 12 1016.2 1016.1 0.0
19/09:30am 27.3 27.5 18.6 59 5.6 E 15 19 8 10 1016.1 1016.0 0.0
19/09:00am 26.9 27.8 19.3 63 4.9 E 13 19 7 10 1015.9 1015.8 0.0
19/08:30am 26.4 27.9 19.8 67 4.3 ESE 11 15 6 8 1015.7 1015.6 0.0
19/08:00am 25.6 27.4 20.4 73 3.4 ESE 11 15 6 8 1015.5 1015.4 0.0

Other Formats:

Comma delimited format used in spreadsheet applications
http://www.bom.gov.au/fwo/IDD60801/IDD60801.94139.axf

JavaScript Object Notation format (JSON) in row-major order
http://www.bom.gov.au/fwo/IDD60801/IDD60801.94139.json